Trempealeau, WI (54661)

10:08 AM CST die 31o January, anno 2015 (GMT -0600)
Holmen | Change Station
CLOSE
Current Station
Personal Weather Stations
Location: Holmen, WI
Elevation: 705 ft
Nearby Weather Stations

Elev 705 ft 43.96 °N, 91.26 °W | Updated 9 seconds ago

Aequaliter Nubila
Aequaliter Nubila
28.8 °F
Feels Like 29 °F
N
0.0
Ventus Variabilis Ventus from Magis Auster quam Zephyrus
Gusts 0.0 mph

Hodie
High -- | Low -- °F
--% Chance of Precip.
Yesterday
High -- | Low -- °F
Precip. -- in
7:24 AM 5:14 PM
Waxing Gibbous, 90% visible
Pressio 30.24 in
Visibilitas 10.0 milia passuum
Clouds Aequaliter Nubila 2300 ft
Frigus Venti 29 °F
Frigus in quo Ros apparet 22 °F
Umor 74%
Rainfall 0.00 in
Snow Depth Not available.
UV 0 out of 12
Pollen .10 out of 12
Air Quality Not available.
Flu Activity Not available.
METAR KLSE 311553Z 00000KT 10SM OVC023 M03/M08 A3019 RMK AO2 SLP238 T10281078

More Conditions Fewer Conditions

Pressio 30.24 in
Visibilitas 10.0 milia passuum
Clouds Aequaliter Nubila 2300 ft
Frigus Venti 29 °F
Frigus in quo Ros apparet 22 °F
Umor 74%
Rainfall 0.00 in
Snow Depth Not available.
UV 0 out of 12
Pollen .10 out of 12
Air Quality Not available.
Flu Activity Not available.
METAR KLSE 311553Z 00000KT 10SM OVC023 M03/M08 A3019 RMK AO2 SLP238 T10281078

More Conditions Fewer Conditions

10-Day Weather Forecast

Almanac

Astronomy

Jan. 31, 2015 Rise Set
Actual Time
Civil Twilight
Nautical Twilight
Astronomical Twilight
Moon
Length Of Visible Light
Length of Day
Tomorrow will be .
, % of the Moon is Illuminated

Today's Extremes

State Highs State Lows

Community

WunderPhotos

Upload Photos

1,792,098 photos uploaded!

WunderBlogs® & News

Nearby

Air Quality

  Air Quality AQ Index Pollutant
Not available.

Snow Depth

Station Depth Elevation

Earthquake Activity

City Distance Mag. Time & Date
Minimum magnitude displayed is 2.5.

Coastal Water Temperatures

Locus Calor

Nearby Weather Stations